Time,TemperatureF,DewpointF,PressureIn,WindDirection,WindDirectionDegrees,WindSpeedMPH,WindSpeedGustMPH,Humidity,HourlyPrecipIn,Conditions,Clouds,dailyrainin,SoftwareType,DateUTC
2013-03-12 00:00:00,52.2,47.0,29.65,SSW,207,11.0,-999.0,81,-99.99,,,0.00,weatherlink.com 1.10,2013-03-12 04:00:00,
2013-03-12 00:15:00,52.2,47.0,29.66,SW,227,4.0,-999.0,83,-99.99,,,0.00,weatherlink.com 1.10,2013-03-12 04:15:00,
2013-03-12 00:30:00,51.8,48.0,29.68,West,261,3.0,-999.0,85,-99.99,,,0.01,weatherlink.com 1.10,2013-03-12 04:30:00,
2013-03-12 00:45:00,49.4,45.0,29.70,SW,236,4.0,-999.0,85,-99.99,,,0.06,weatherlink.com 1.10,2013-03-12 04:45:00,
2013-03-12 01:00:00,47.4,44.0,29.70,SW,216,4.0,-999.0,88,-99.99,,,0.11,weatherlink.com 1.10,2013-03-12 05:00:00,
2013-03-12 01:15:00,46.5,44.0,29.70,SSW,200,2.0,-999.0,90,-99.99,,,0.12,weatherlink.com 1.10,2013-03-12 05:15:00,
2013-03-12 01:30:00,46.1,44.0,29.71,WSW,256,3.0,-999.0,91,-99.99,,,0.12,weatherlink.com 1.10,2013-03-12 05:30:00,
2013-03-12 01:45:00,45.9,44.0,29.70,West,264,2.0,-999.0,92,-99.99,,,0.13,weatherlink.com 1.10,2013-03-12 05:45:00,
2013-03-12 02:00:00,45.7,44.0,29.69,WSW,253,4.0,-999.0,92,-99.99,,,0.13,weatherlink.com 1.10,2013-03-12 06:00:00,
2013-03-12 02:15:00,45.4,44.0,29.70,SW,234,0.0,-999.0,93,-99.99,,,0.13,weatherlink.com 1.10,2013-03-12 06:15:00,
2013-03-12 02:30:00,45.2,43.0,29.71,West,279,1.0,-999.0,93,-99.99,,,0.14,weatherlink.com 1.10,2013-03-12 06:30:00,
2013-03-12 02:45:00,44.2,42.0,29.71,WSW,253,4.0,-999.0,93,-99.99,,,0.15,weatherlink.com 1.10,2013-03-12 06:45:00,
2013-03-12 03:00:00,43.1,41.0,29.71,West,281,9.0,-999.0,92,-99.99,,,0.15,weatherlink.com 1.10,2013-03-12 07:00:00,
2013-03-12 03:15:00,42.3,40.0,29.71,WSW,245,5.0,-999.0,92,-99.99,,,0.15,weatherlink.com 1.10,2013-03-12 07:15:00,
2013-03-12 03:30:00,41.9,40.0,29.72,SSW,211,4.0,-999.0,92,-99.99,,,0.16,weatherlink.com 1.10,2013-03-12 07:30:00,
2013-03-12 03:45:00,41.3,39.0,29.72,WSW,240,6.0,-999.0,92,-99.99,,,0.16,weatherlink.com 1.10,2013-03-12 07:45:00,
2013-03-12 04:00:00,40.8,39.0,29.74,SW,226,9.0,-999.0,92,-99.99,,,0.16,weatherlink.com 1.10,2013-03-12 08:00:00,
2013-03-12 04:15:00,40.3,38.0,29.73,SW,225,6.0,-999.0,92,-99.99,,,0.17,weatherlink.com 1.10,2013-03-12 08:15:00,
2013-03-12 04:30:00,39.7,37.0,29.72,SW,221,4.0,-999.0,91,-99.99,,,0.17,weatherlink.com 1.10,2013-03-12 08:30:00,
2013-03-12 04:45:00,39.0,37.0,29.73,SW,228,3.0,-999.0,91,-99.99,,,0.17,weatherlink.com 1.10,2013-03-12 08:45:00,
2013-03-12 05:00:00,38.1,36.0,29.75,West,277,9.0,-999.0,90,-99.99,,,0.17,weatherlink.com 1.10,2013-03-12 09:00:00,
2013-03-12 05:15:00,37.7,35.0,29.75,SSW,194,5.0,-999.0,91,-99.99,,,0.17,weatherlink.com 1.10,2013-03-12 09:15:00,
2013-03-12 05:30:00,37.1,35.0,29.75,SW,234,3.0,-999.0,90,-99.99,,,0.19,weatherlink.com 1.10,2013-03-12 09:30:00,
2013-03-12 05:45:00,36.7,34.0,29.75,SW,234,3.0,-999.0,90,-99.99,,,0.19,weatherlink.com 1.10,2013-03-12 09:45:00,
2013-03-12 06:00:00,36.5,34.0,29.75,West,265,3.0,-999.0,90,-99.99,,,0.19,weatherlink.com 1.10,2013-03-12 10:00:00,
2013-03-12 06:15:00,36.4,34.0,29.78,SSW,198,8.0,-999.0,90,-99.99,,,0.19,weatherlink.com 1.10,2013-03-12 10:15:00,
2013-03-12 06:30:00,36.3,34.0,29.78,SW,230,4.0,-999.0,90,-99.99,,,0.19,weatherlink.com 1.10,2013-03-12 10:30:00,
2013-03-12 06:45:00,36.0,33.0,29.76,WSW,241,10.0,-999.0,89,-99.99,,,0.19,weatherlink.com 1.10,2013-03-12 10:45:00,
2013-03-12 07:00:00,35.8,33.0,29.78,WSW,244,4.0,-999.0,89,-99.99,,,0.19,weatherlink.com 1.10,2013-03-12 11:00:00,
2013-03-12 07:15:00,35.6,33.0,29.77,WSW,241,2.0,-999.0,89,-99.99,,,0.19,weatherlink.com 1.10,2013-03-12 11:15:00,
2013-03-12 07:30:00,35.6,33.0,29.78,West,265,2.0,-999.0,89,-99.99,,,0.19,weatherlink.com 1.10,2013-03-12 11:30:00,
2013-03-12 07:45:00,35.8,33.0,29.78,WSW,248,5.0,-999.0,88,-99.99,,,0.19,weatherlink.com 1.10,2013-03-12 11:45:00,
2013-03-12 08:00:00,36.0,33.0,29.79,WSW,240,7.0,-999.0,88,-99.99,,,0.19,weatherlink.com 1.10,2013-03-12 12:00:00,
2013-03-12 08:15:00,36.2,33.0,29.80,SW,231,2.0,-999.0,87,-99.99,,,0.19,weatherlink.com 1.10,2013-03-12 12:15:00,
2013-03-12 08:30:00,36.4,33.0,29.80,WNW,291,2.0,-999.0,87,-99.99,,,0.19,weatherlink.com 1.10,2013-03-12 12:30:00,
2013-03-12 08:45:00,36.5,33.0,29.80,SSW,206,3.0,-999.0,86,-99.99,,,0.19,weatherlink.com 1.10,2013-03-12 12:45:00,
2013-03-12 09:00:00,36.8,33.0,29.81,West,267,4.0,-999.0,85,-99.99,,,0.19,weatherlink.com 1.10,2013-03-12 13:00:00,
2013-03-12 09:15:00,36.8,33.0,29.81,WSW,237,3.0,-999.0,85,-99.99,,,0.19,weatherlink.com 1.10,2013-03-12 13:15:00,
2013-03-12 09:30:00,36.8,33.0,29.81,WSW,246,1.0,-999.0,85,-99.99,,,0.19,weatherlink.com 1.10,2013-03-12 13:30:00,
2013-03-12 09:45:00,36.9,33.0,29.80,SW,226,0.0,-999.0,85,-99.99,,,0.19,weatherlink.com 1.10,2013-03-12 13:45:00,
2013-03-12 10:00:00,37.2,33.0,29.81,SW,217,5.0,-999.0,84,-99.99,,,0.19,weatherlink.com 1.10,2013-03-12 14:00:00,
2013-03-12 10:15:00,37.6,33.0,29.82,WSW,242,2.0,-999.0,84,-99.99,,,0.19,weatherlink.com 1.10,2013-03-12 14:15:00,
2013-03-12 10:30:00,38.0,33.0,29.81,SW,215,9.0,-999.0,83,-99.99,,,0.19,weatherlink.com 1.10,2013-03-12 14:30:00,
2013-03-12 10:45:00,38.5,33.0,29.81,WSW,252,4.0,-999.0,82,-99.99,,,0.19,weatherlink.com 1.10,2013-03-12 14:45:00,
2013-03-12 11:00:00,38.9,33.0,29.81,SW,226,2.0,-999.0,80,-99.99,,,0.19,weatherlink.com 1.10,2013-03-12 15:00:00,
2013-03-12 11:15:00,39.1,33.0,29.81,WSW,246,1.0,-999.0,78,-99.99,,,0.19,weatherlink.com 1.10,2013-03-12 15:15:00,
2013-03-12 11:30:00,39.1,33.0,29.82,West,266,1.0,-999.0,78,-99.99,,,0.19,weatherlink.com 1.10,2013-03-12 15:30:00,
2013-03-12 11:45:00,38.8,33.0,29.81,West,269,4.0,-999.0,80,-99.99,,,0.19,weatherlink.com 1.10,2013-03-12 15:45:00,
2013-03-12 12:00:00,38.7,33.0,29.81,WSW,250,5.0,-999.0,81,-99.99,,,0.19,weatherlink.com 1.10,2013-03-12 16:00:00,
2013-03-12 12:15:00,38.6,33.0,29.81,SSW,207,4.0,-999.0,80,-99.99,,,0.19,weatherlink.com 1.10,2013-03-12 16:15:00,
2013-03-12 12:30:00,38.4,33.0,29.81,SSW,200,10.0,-999.0,80,-99.99,,,0.19,weatherlink.com 1.10,2013-03-12 16:30:00,
2013-03-12 12:45:00,37.8,32.0,29.82,WSW,239,4.0,-999.0,80,-99.99,,,0.19,weatherlink.com 1.10,2013-03-12 16:45:00,
2013-03-12 13:00:00,37.4,32.0,29.82,WSW,256,2.0,-999.0,81,-99.99,,,0.19,weatherlink.com 1.10,2013-03-12 17:00:00,
2013-03-12 13:14:00,37.2,32.0,29.83,South,190,14.0,-999.0,81,-99.99,,,0.19,weatherlink.com 1.10,2013-03-12 17:14:00,
2013-03-12 13:29:00,36.8,32.0,29.83,WSW,240,6.0,-999.0,82,-99.99,,,0.19,weatherlink.com 1.10,2013-03-12 17:29:00,
2013-03-12 13:44:00,36.8,32.0,29.83,WSW,250,0.0,-999.0,83,-99.99,,,0.19,weatherlink.com 1.10,2013-03-12 17:44:00,
2013-03-12 13:59:00,36.8,32.0,29.82,West,277,3.0,-999.0,82,-99.99,,,0.19,weatherlink.com 1.10,2013-03-12 17:59:00,
2013-03-12 14:14:00,36.6,32.0,29.82,WSW,242,3.0,-999.0,83,-99.99,,,0.19,weatherlink.com 1.10,2013-03-12 18:14:00,
2013-03-12 14:29:00,36.5,32.0,29.81,West,269,1.0,-999.0,83,-99.99,,,0.19,weatherlink.com 1.10,2013-03-12 18:29:00,
2013-03-12 14:44:00,36.5,32.0,29.81,WNW,288,3.0,-999.0,83,-99.99,,,0.19,weatherlink.com 1.10,2013-03-12 18:44:00,
2013-03-12 14:59:00,36.4,32.0,29.81,WSW,240,2.0,-999.0,84,-99.99,,,0.19,weatherlink.com 1.10,2013-03-12 18:59:00,
2013-03-12 15:14:00,36.4,32.0,29.81,SW,226,12.0,-999.0,83,-99.99,,,0.19,weatherlink.com 1.10,2013-03-12 19:14:00,
2013-03-12 15:29:00,36.1,31.0,29.82,WSW,245,4.0,-999.0,82,-99.99,,,0.19,weatherlink.com 1.10,2013-03-12 19:29:00,
2013-03-12 15:44:00,36.0,31.0,29.82,NW,315,6.0,-999.0,83,-99.99,,,0.19,weatherlink.com 1.10,2013-03-12 19:44:00,
2013-03-12 15:59:00,35.8,31.0,29.82,WSW,246,6.0,-999.0,83,-99.99,,,0.19,weatherlink.com 1.10,2013-03-12 19:59:00,
2013-03-12 16:14:00,35.4,30.0,29.83,SSW,211,4.0,-999.0,82,-99.99,,,0.19,weatherlink.com 1.10,2013-03-12 20:14:00,
2013-03-12 16:29:00,35.7,31.0,29.83,West,259,3.0,-999.0,82,-99.99,,,0.19,weatherlink.com 1.10,2013-03-12 20:29:00,
2013-03-12 16:45:00,36.0,30.0,29.83,West,271,6.0,-999.0,80,-99.99,,,0.19,weatherlink.com 1.10,2013-03-12 20:45:00,
2013-03-12 17:00:00,36.7,31.0,29.83,WSW,245,1.0,-999.0,79,-99.99,,,0.19,weatherlink.com 1.10,2013-03-12 21:00:00,
2013-03-12 17:15:00,36.8,31.0,29.84,WNW,287,5.0,-999.0,78,-99.99,,,0.19,weatherlink.com 1.10,2013-03-12 21:15:00,
2013-03-12 17:30:00,36.6,30.0,29.84,WNW,289,6.0,-999.0,78,-99.99,,,0.19,weatherlink.com 1.10,2013-03-12 21:30:00,
2013-03-12 17:45:00,36.2,30.0,29.85,West,261,7.0,-999.0,79,-99.99,,,0.19,weatherlink.com 1.10,2013-03-12 21:45:00,
2013-03-12 18:15:00,34.9,30.0,29.86,WSW,249,10.0,-999.0,82,-99.99,,,0.19,weatherlink.com 1.10,2013-03-12 22:15:00,
2013-03-12 18:30:00,34.8,30.0,29.86,WSW,238,5.0,-999.0,83,-99.99,,,0.19,weatherlink.com 1.10,2013-03-12 22:30:00,
2013-03-12 18:45:00,34.6,29.0,29.86,WSW,243,5.0,-999.0,81,-99.99,,,0.19,weatherlink.com 1.10,2013-03-12 22:45:00,
2013-03-12 19:00:00,34.5,29.0,29.87,West,261,6.0,-999.0,81,-99.99,,,0.19,weatherlink.com 1.10,2013-03-12 23:00:00,
2013-03-12 19:15:00,34.4,29.0,29.87,WSW,252,3.0,-999.0,81,-99.99,,,0.19,weatherlink.com 1.10,2013-03-12 23:15:00,
2013-03-12 19:30:00,34.4,29.0,29.88,SW,227,9.0,-999.0,81,-99.99,,,0.19,weatherlink.com 1.10,2013-03-12 23:30:00,
2013-03-12 19:45:00,34.4,29.0,29.88,SW,232,4.0,-999.0,82,-99.99,,,0.19,weatherlink.com 1.10,2013-03-12 23:45:00,
2013-03-12 20:00:00,34.4,29.0,29.88,SSW,210,4.0,-999.0,82,-99.99,,,0.19,weatherlink.com 1.10,2013-03-13 00:00:00,
2013-03-12 20:15:00,34.4,29.0,29.89,SW,221,2.0,-999.0,82,-99.99,,,0.19,weatherlink.com 1.10,2013-03-13 00:15:00,
2013-03-12 20:30:00,34.3,29.0,29.89,SSW,201,4.0,-999.0,82,-99.99,,,0.19,weatherlink.com 1.10,2013-03-13 00:30:00,
2013-03-12 20:45:00,34.1,29.0,29.89,SW,223,2.0,-999.0,82,-99.99,,,0.19,weatherlink.com 1.10,2013-03-13 00:45:00,
2013-03-12 21:00:00,33.9,29.0,29.90,WSW,248,7.0,-999.0,82,-99.99,,,0.19,weatherlink.com 1.10,2013-03-13 01:00:00,
2013-03-12 21:15:00,33.6,29.0,29.89,SW,227,6.0,-999.0,82,-99.99,,,0.19,weatherlink.com 1.10,2013-03-13 01:15:00,
2013-03-12 21:30:00,33.3,28.0,29.90,SW,234,3.0,-999.0,82,-99.99,,,0.19,weatherlink.com 1.10,2013-03-13 01:30:00,
2013-03-12 21:45:00,33.3,29.0,29.90,SSW,207,5.0,-999.0,83,-99.99,,,0.19,weatherlink.com 1.10,2013-03-13 01:45:00,
2013-03-12 22:00:00,33.4,29.0,29.90,SSW,205,3.0,-999.0,83,-99.99,,,0.19,weatherlink.com 1.10,2013-03-13 02:00:00,
2013-03-12 22:15:00,33.3,29.0,29.91,SW,222,5.0,-999.0,83,-99.99,,,0.19,weatherlink.com 1.10,2013-03-13 02:15:00,
2013-03-12 22:30:00,33.2,28.0,29.91,WSW,238,2.0,-999.0,82,-99.99,,,0.19,weatherlink.com 1.10,2013-03-13 02:30:00,
2013-03-12 22:45:00,33.2,28.0,29.91,WSW,246,4.0,-999.0,81,-99.99,,,0.19,weatherlink.com 1.10,2013-03-13 02:45:00,
2013-03-12 23:00:00,33.0,27.0,29.89,West,262,7.0,-999.0,80,-99.99,,,0.19,weatherlink.com 1.10,2013-03-13 03:00:00,
2013-03-12 23:15:00,33.0,27.0,29.90,WSW,253,6.0,-999.0,80,-99.99,,,0.19,weatherlink.com 1.10,2013-03-13 03:15:00,
2013-03-12 23:30:00,32.9,28.0,29.91,WSW,254,4.0,-999.0,81,-99.99,,,0.19,weatherlink.com 1.10,2013-03-13 03:30:00,
2013-03-12 23:45:00,32.9,28.0,29.91,SSW,198,1.0,-999.0,81,-99.99,,,0.19,weatherlink.com 1.10,2013-03-13 03:45:00,